^^
Station Historical Data
 
Daily Summary for February 25, 2018 Units:  English    Metric   Both
« Previous Day
Next Day »
Daily Weekly Monthly Yearly Custom
  Current: High: Low: Average:
Temperature: 65.3 °F TemperatureF °F 65.3 °F 65.3 °F
Dew Point: 60.3 °F DewpointF °F 58.6 °F 58.3 °F
Humidity: 84% Humidity% 73% 77%
Wind Speed: 0.0mph WindSpeedMPHmph 0.0mph 0.2mph
Wind Gust: 2.0mph WindSpeedGustMPHmph - -
WindCalm - - ESE
Pressure: 29.99 in PressureIn in 29.99 in -
Precipitation: 0.00 in      
Historical Graphs
 
 
Tabular Data for February 25, 2018
Time Temperature Dew Point Pressure Wind Wind Speed Wind Gust Humidity Rainfall Rate (Hourly)
TemperatureF °F DewpointF °F PressureIn in Calm     Humidity% HourlyPrecipIn in
00:05 68.7 °F 59.7 °F 30.03 in Calm     73% 0.00 in
00:11 68.7 °F 59.7 °F 30.03 in Calm   1.0 mph 73% 0.00 in
00:16 68.5 °F 59.5 °F 30.03 in Calm   2.0 mph 73% 0.00 in
00:21 68.5 °F 59.5 °F 30.03 in Calm   4.0 mph 73% 0.00 in
00:27 68.5 °F 59.5 °F 30.03 in Calm   4.0 mph 73% 0.00 in
00:32 68.4 °F 59.4 °F 30.03 in Calm     73% 0.00 in
00:37 68.4 °F 59.7 °F 30.03 in Calm   1.0 mph 74% 0.00 in
00:42 68.2 °F 59.5 °F 30.03 in Calm   1.0 mph 74% 0.00 in
00:47 68.2 °F 59.5 °F 30.03 in Calm   1.0 mph 74% 0.00 in
00:52 68.0 °F 59.7 °F 30.03 in Calm   1.0 mph 75% 0.00 in
00:57 67.8 °F 59.5 °F 30.04 in Calm     75% 0.00 in
01:03 67.8 °F 59.5 °F 30.03 in ENE 0.9 mph 1.0 mph 75% 0.00 in
01:08 67.8 °F 59.5 °F 30.02 in Calm   1.0 mph 75% 0.00 in
01:13 67.6 °F 59.4 °F 30.01 in Calm     75% 0.00 in
01:19 67.5 °F 59.5 °F 30.01 in Calm   1.0 mph 76% 0.00 in
01:25 67.3 °F 59.5 °F 30.01 in Calm     76% 0.00 in
01:30 66.9 °F 59.2 °F 30.01 in SE 4.0 mph 4.0 mph 76% 0.00 in
01:35 66.9 °F 59.2 °F 30.01 in Calm   1.0 mph 76% 0.00 in
01:40 66.9 °F 59.2 °F 30.01 in Calm   1.0 mph 76% 0.00 in
01:45 66.9 °F 59.2 °F 30.02 in Calm     76% 0.00 in
01:51 66.7 °F 59.0 °F 30.02 in Calm     76% 0.00 in
01:56 66.6 °F 59.2 °F 30.02 in Calm     77% 0.00 in
02:01 66.4 °F 59.0 °F 30.02 in Calm   1.0 mph 77% 0.00 in
02:07 66.2 °F 58.8 °F 30.03 in Calm   1.0 mph 77% 0.00 in
02:12 66.0 °F 58.6 °F 30.02 in ESE 0.9 mph 1.0 mph 77% 0.00 in
02:17 66.0 °F 59.0 °F 30.03 in Calm   1.0 mph 78% 0.00 in
02:23 65.8 °F 58.8 °F 30.02 in Calm   1.0 mph 78% 0.00 in
02:28 65.8 °F 58.8 °F 30.02 in Calm   1.0 mph 78% 0.00 in
02:34 65.7 °F 58.6 °F 30.02 in Calm     78% 0.00 in
02:39 65.7 °F 58.6 °F 30.02 in Calm     78% 0.00 in
02:44 65.7 °F 59.0 °F 30.02 in Calm   1.0 mph 79% 0.00 in
02:50 65.5 °F 58.8 °F 30.02 in Calm   1.0 mph 79% 0.00 in
02:55 65.5 °F 58.8 °F 30.02 in Calm     79% 0.00 in
03:00 65.5 °F 59.2 °F 30.01 in Calm   1.0 mph 80% 0.00 in
03:05 65.5 °F 59.2 °F 30.01 in Calm   1.0 mph 80% 0.00 in
03:10 65.5 °F 59.2 °F 30.01 in Calm   1.0 mph 80% 0.00 in
03:16 65.5 °F 59.2 °F 30.01 in SSE 0.9 mph 4.0 mph 80% 0.00 in
03:21 65.5 °F 59.2 °F 30.01 in Calm   1.0 mph 80% 0.00 in
03:27 65.5 °F 59.5 °F 30.01 in Calm     81% 0.00 in
03:32 65.5 °F 59.5 °F 30.01 in Calm   1.0 mph 81% 0.00 in
03:37 65.5 °F 59.5 °F 30.01 in Calm   2.0 mph 81% 0.00 in
03:42 65.5 °F 59.5 °F 30.01 in ESE 0.9 mph 5.0 mph 81% 0.00 in
03:47 65.5 °F 59.9 °F 30.01 in ESE 2.0 mph 2.0 mph 82% 0.00 in
03:53 65.5 °F 59.9 °F 30.01 in Calm   7.0 mph 82% 0.00 in
03:58 65.5 °F 59.9 °F 30.02 in Calm   2.0 mph 82% 0.00 in
04:03 65.5 °F 59.9 °F 30.01 in Calm   2.0 mph 82% 0.00 in
04:08 65.5 °F 60.3 °F 30.00 in Calm   1.0 mph 83% 0.00 in
04:13 65.5 °F 60.3 °F 30.00 in Calm   4.0 mph 83% 0.00 in
04:19 65.5 °F 60.3 °F 29.99 in Calm     83% 0.00 in
04:25 65.5 °F 60.3 °F 30.00 in Calm     83% 0.00 in
04:26 65.5 °F 60.3 °F 30.00 in SE 0.9 mph 1.0 mph 83% 0.00 in
04:32 65.3 °F 60.3 °F 30.00 in Calm   1.0 mph 84% 0.00 in
04:37 65.3 °F 60.3 °F 29.99 in Calm   2.0 mph 84% 0.00 in
Ellijay Weather
Compliments of Weather Underground - 1.25 mb